Time;durP1;ratioP1;P1;durP2;ratioP2;P2;SDS_P1;SDS_P2;PMS_P1;PMS_P2;Temp;Humidity;BMP_temperature;BMP_pressure;BME280_temperature;BME280_humidity;BME280_pressure;Samples;Min_cycle;Max_cycle;Signal;HPM_P1;HPM_P2
2022/11/04 00:01:33;;;;;;;9.27;1.90;;;;;;;11.81;98.01;100357.16;5070778;28;20042;-63
2022/11/04 00:03:59;;;;;;;6.22;1.90;;;;;;;11.80;98.20;100360.91;5103219;28;20027;-63
2022/11/04 00:06:25;;;;;;;9.15;2.05;;;;;;;11.79;98.04;100353.84;5098279;28;20166;-63
2022/11/04 00:08:52;;;;;;;9.45;2.58;;;;;;;11.79;97.80;100353.84;5108914;28;20478;-63
2022/11/04 00:14:05;;;;;;;4.68;2.00;;;;;;;11.75;97.64;100356.16;5085772;28;20093;-64
2022/11/04 00:19:14;;;;;;;9.20;2.05;;;;;;;11.60;97.14;100323.31;5080996;28;20100;-63
2022/11/04 00:30:07;;;;;;;9.10;2.30;;;;;;;11.77;96.56;100343.28;5100638;28;20062;-63
2022/11/04 00:35:33;;;;;;;11.32;2.60;;;;;;;11.68;96.81;100344.59;5043376;28;20044;-63
2022/11/04 00:37:59;;;;;;;11.07;3.15;;;;;;;11.71;96.48;100344.97;5097492;28;20054;-63
2022/11/04 00:40:24;;;;;;;11.68;2.10;;;;;;;11.54;96.75;100316.91;5079645;28;20102;-63
2022/11/04 00:42:50;;;;;;;9.45;1.92;;;;;;;11.65;96.83;100337.75;5092917;28;20067;-63
2022/11/04 00:45:15;;;;;;;6.53;2.05;;;;;;;11.69;96.39;100333.59;5107484;28;20047;-63
2022/11/04 00:47:40;;;;;;;10.38;2.33;;;;;;;11.64;96.62;100329.91;5081391;28;20544;-64
2022/11/04 00:50:11;;;;;;;9.20;2.50;;;;;;;11.72;96.52;100335.88;5100139;28;20078;-63
2022/11/04 00:52:36;;;;;;;9.77;1.98;;;;;;;11.66;96.34;100325.97;5073135;28;20039;-63
2022/11/04 00:55:02;;;;;;;9.32;2.03;;;;;;;11.67;96.67;100333.00;5076908;28;20039;-63
2022/11/04 00:57:28;;;;;;;10.30;2.13;;;;;;;11.69;96.38;100322.81;5105521;28;20024;-63
2022/11/04 00:59:54;;;;;;;12.25;2.42;;;;;;;11.61;96.47;100333.84;5083187;28;20055;-63
2022/11/04 01:02:19;;;;;;;7.20;2.40;;;;;;;11.65;96.63;100339.63;5063698;28;20036;-63
2022/11/04 01:04:46;;;;;;;10.32;2.42;;;;;;;11.52;96.60;100321.69;5108260;28;20393;-65
2022/11/04 01:07:12;;;;;;;12.55;2.97;;;;;;;11.61;97.02;100330.34;5095610;28;20039;-63
2022/11/04 01:09:39;;;;;;;8.35;2.58;;;;;;;11.50;97.07;100311.13;5104325;28;20394;-63
2022/11/04 01:12:05;;;;;;;12.02;2.45;;;;;;;11.51;97.17;100315.47;5067893;28;20509;-63
2022/11/04 01:14:30;;;;;;;8.88;2.58;;;;;;;11.53;97.45;100315.28;5096834;28;20119;-63
2022/11/04 01:16:56;;;;;;;11.93;2.55;;;;;;;11.54;97.52;100311.53;5108192;28;20039;-63
2022/11/04 01:19:21;;;;;;;6.85;2.20;;;;;;;11.53;97.86;100309.88;5096382;28;20035;-63
2022/11/04 01:21:50;;;;;;;10.70;2.55;;;;;;;11.47;98.07;100300.78;5102320;28;20051;-62
2022/11/04 01:24:16;;;;;;;9.05;2.55;;;;;;;11.50;97.79;100311.13;5103835;28;20024;-63
2022/11/04 01:26:41;;;;;;;9.40;2.78;;;;;;;11.49;98.03;100293.31;5076844;28;20540;-63
2022/11/04 01:29:06;;;;;;;12.13;2.75;;;;;;;11.50;97.64;100294.97;5107415;28;20097;-63
2022/11/04 01:31:32;;;;;;;11.77;2.80;;;;;;;11.41;98.24;100290.06;5079593;28;20028;-63
2022/11/04 01:33:58;;;;;;;10.68;2.60;;;;;;;11.40;97.90;100258.78;5101284;28;20474;-63
2022/11/04 01:36:25;;;;;;;12.05;2.97;;;;;;;11.47;98.01;100267.63;5105422;28;20448;-63
2022/11/04 01:38:50;;;;;;;8.77;3.10;;;;;;;11.48;97.69;100266.59;5094561;28;20070;-63
2022/11/04 01:41:23;;;;;;;13.07;2.90;;;;;;;11.33;97.66;100239.16;5107077;28;20059;-63
2022/11/04 01:43:52;;;;;;;10.63;2.97;;;;;;;11.41;97.98;100261.25;5082100;28;20085;-63
2022/11/04 01:46:30;;;;;;;13.75;3.17;;;;;;;11.32;97.46;100226.72;5080160;28;20142;-63
2022/11/04 01:49:02;;;;;;;11.38;3.22;;;;;;;11.21;98.36;100226.38;5108083;28;20175;-62
2022/11/04 01:51:32;;;;;;;8.20;2.40;;;;;;;11.07;98.59;100216.72;5101100;28;20027;-63
2022/11/04 01:54:02;;;;;;;9.02;2.78;;;;;;;11.35;98.54;100254.03;5105010;28;20036;-63
2022/11/04 01:56:28;;;;;;;8.20;2.50;;;;;;;11.37;97.94;100243.06;5091242;28;20433;-63
2022/11/04 01:58:59;;;;;;;14.95;3.22;;;;;;;11.39;97.67;100249.03;5098128;28;20048;-63
2022/11/04 02:01:24;;;;;;;12.65;2.42;;;;;;;11.32;98.22;100237.47;5091943;28;20039;-63
2022/11/04 02:03:55;;;;;;;7.90;2.40;;;;;;;11.28;98.41;100232.53;5085696;28;20031;-63
2022/11/04 02:06:24;;;;;;;8.55;2.58;;;;;;;11.27;98.11;100232.75;5083628;28;20062;-63
2022/11/04 02:08:49;;;;;;;8.88;2.80;;;;;;;11.36;97.64;100246.78;5093716;28;20028;-63
2022/11/04 02:12:48;;;;;;;9.75;2.47;;;;;;;11.29;98.18;100238.72;5063978;28;20024;-63
2022/11/04 02:14:01;;;;;;;12.45;2.70;;;;;;;11.31;98.29;100235.84;5089143;28;20032;-63
2022/11/04 02:16:47;;;;;;;9.25;2.53;;;;;;;11.33;97.68;100247.22;5090593;28;20393;-63
2022/11/04 02:19:12;;;;;;;12.07;2.92;;;;;;;11.33;97.93;100250.75;5088160;28;20518;-63
2022/11/04 02:22:13;;;;;;;7.55;2.70;;;;;;;11.28;98.16;100237.09;5079039;28;20048;-63
2022/11/04 02:25:12;;;;;;;12.98;3.00;;;;;;;11.25;98.49;100222.19;5031771;28;20040;-63
2022/11/04 02:27:56;;;;;;;11.02;2.80;;;;;;;11.19;98.90;100224.91;5065619;28;20024;-62
2022/11/04 02:30:28;;;;;;;10.75;3.35;;;;;;;11.19;98.87;100220.38;5078111;28;20459;-63
2022/11/04 02:33:20;;;;;;;13.93;3.10;;;;;;;11.16;99.31;100222.66;5088244;28;20542;-63
2022/11/04 02:35:57;;;;;;;9.00;2.80;;;;;;;11.18;99.09;100215.19;5079695;28;20077;-63
2022/11/04 02:38:25;;;;;;;11.88;2.95;;;;;;;11.18;99.15;100216.03;5078018;28;20115;-63
2022/11/04 02:41:03;;;;;;;9.95;3.45;;;;;;;11.16;99.52;100218.13;5087926;28;20040;-63
2022/11/04 02:43:56;;;;;;;11.88;3.42;;;;;;;11.12;99.68;100206.13;5076285;28;20062;-63
2022/11/04 02:46:33;;;;;;;11.82;3.22;;;;;;;11.03;100.00;100193.97;5078129;28;20063;-63
2022/11/04 02:49:17;;;;;;;14.38;3.08;;;;;;;11.12;100.00;100191.84;5087729;28;20036;-63
2022/11/04 02:51:52;;;;;;;12.43;3.63;;;;;;;11.18;100.00;100193.66;5083680;28;20030;-63
2022/11/04 02:54:20;;;;;;;;;;;;;;;11.26;99.64;100190.72;5083611;28;20044;-63
2022/11/04 02:56:50;;;;;;;12.18;3.10;;;;;;;11.10;100.00;100178.59;5092053;28;19926;-63
2022/11/04 02:59:51;;;;;;;9.00;3.25;;;;;;;11.21;100.00;100185.97;5081103;28;20043;-63
2022/11/04 03:02:24;;;;;;;7.95;2.85;;;;;;;10.99;100.00;100153.22;5101296;28;20494;-63
2022/11/04 03:04:51;;;;;;;8.93;2.90;;;;;;;11.22;100.00;100189.47;5092203;28;20508;-63
2022/11/04 03:07:23;;;;;;;8.98;3.05;;;;;;;11.14;100.00;100182.50;5097931;28;20027;-63
2022/11/04 03:10:27;;;;;;;9.35;3.13;;;;;;;11.18;100.00;100185.56;5086978;28;20043;-63
2022/11/04 03:12:58;;;;;;;12.20;3.10;;;;;;;11.16;100.00;100182.28;5050818;28;20032;-63
2022/11/04 03:15:27;;;;;;;9.43;3.35;;;;;;;11.21;100.00;100185.97;5050827;28;20029;-63
2022/11/04 03:17:55;;;;;;;11.30;3.92;;;;;;;11.34;100.00;100181.53;5050723;28;20068;-63
2022/11/04 03:20:24;;;;;;;9.90;4.00;;;;;;;11.35;100.00;100189.38;5050610;28;20029;-63
2022/11/04 03:22:54;;;;;;;10.85;3.80;;;;;;;11.31;100.00;100179.28;5050582;28;20072;-63
2022/11/04 03:25:40;;;;;;;13.25;3.95;;;;;;;11.40;100.00;100184.16;5003455;28;20042;-63
2022/11/04 03:28:46;;;;;;;10.52;3.90;;;;;;;11.33;100.00;100183.41;5019538;28;20128;-63
2022/11/04 03:31:24;;;;;;;9.55;4.10;;;;;;;11.28;100.00;100175.97;5026774;28;20038;-63
2022/11/04 03:33:52;;;;;;;13.48;3.88;;;;;;;11.19;100.00;100158.44;5018791;28;20076;-63
2022/11/04 03:36:19;;;;;;;12.05;4.05;;;;;;;11.35;100.00;100177.78;5018014;28;20040;-63
2022/11/04 03:38:45;;;;;;;10.63;3.65;;;;;;;11.09;100.00;100141.09;5026151;28;20148;-63
2022/11/04 03:41:30;;;;;;;13.05;3.75;;;;;;;11.23;100.00;100167.72;5013603;28;20048;-63
2022/11/04 03:43:56;;;;;;;11.93;3.88;;;;;;;11.19;100.00;100181.84;5042462;28;20522;-63
2022/11/04 03:46:21;;;;;;;11.57;3.67;;;;;;;11.27;100.00;100166.25;5057360;28;20041;-63
2022/11/04 03:48:49;;;;;;;12.40;3.97;;;;;;;11.09;100.00;100162.66;5066439;28;20094;-63
2022/11/04 03:51:18;;;;;;;10.50;3.90;;;;;;;11.31;100.00;100165.81;5020857;28;20522;-63
2022/11/04 03:53:44;;;;;;;13.20;3.85;;;;;;;11.02;100.00;100152.75;5061864;28;20032;-65
2022/11/04 03:56:09;;;;;;;11.77;4.63;;;;;;;11.27;100.00;100154.66;5041149;28;20101;-63
2022/11/04 03:58:46;;;;;;;10.93;3.88;;;;;;;11.19;100.00;100147.69;5097431;28;20056;-63
2022/11/04 04:01:33;;;;;;;10.88;4.15;;;;;;;11.12;100.00;100146.06;5108027;28;20031;-63
2022/11/04 04:04:06;;;;;;;12.30;4.55;;;;;;;11.23;100.00;100143.50;5083964;28;20084;-63
2022/11/04 04:06:35;;;;;;;12.60;4.20;;;;;;;11.10;100.00;100119.38;5098316;28;20422;-63
2022/11/04 04:09:25;;;;;;;14.05;4.90;;;;;;;11.13;100.00;100153.13;5109046;28;20031;-63
2022/11/04 04:11:57;;;;;;;11.52;4.63;;;;;;;11.08;100.00;100139.47;5099787;28;20039;-63
2022/11/04 04:14:54;;;;;;;11.23;4.47;;;;;;;11.38;100.00;100156.63;5099168;28;20425;-63
2022/11/04 04:17:28;;;;;;;13.55;4.40;;;;;;;11.38;100.00;100162.00;5057821;28;20040;-63
2022/11/04 04:19:59;;;;;;;10.65;4.97;;;;;;;11.30;100.00;100154.22;5080332;28;20036;-63
2022/11/04 04:22:38;;;;;;;16.20;4.60;;;;;;;11.33;100.00;100158.34;5082519;28;20048;-63
2022/11/04 04:27:53;;;;;;;10.20;4.60;;;;;;;11.42;100.00;100148.91;5080841;28;20043;-63
2022/11/04 04:30:19;;;;;;;16.35;4.95;;;;;;;11.30;99.93;100132.66;5064878;28;20510;-63
2022/11/04 04:32:50;;;;;;;12.65;5.30;;;;;;;11.41;100.00;100147.28;5056391;28;20048;-63
2022/11/04 04:46:28;;;;;;;11.48;5.03;;;;;;;11.34;100.00;100158.13;5089472;28;20039;-66
2022/11/04 04:48:53;;;;;;;8.20;4.32;;;;;;;11.12;100.00;100154.97;5088424;28;20048;-63
2022/11/04 04:51:19;;;;;;;11.00;4.78;;;;;;;11.35;100.00;100156.25;5107665;28;20026;-63
2022/11/04 04:53:45;;;;;;;12.50;5.13;;;;;;;11.07;100.00;100124.38;5081009;28;20055;-63
2022/11/04 04:56:11;;;;;;;13.32;4.95;;;;;;;11.35;100.00;100142.78;5100222;28;20093;-63
2022/11/04 04:58:36;;;;;;;10.95;4.72;;;;;;;11.43;100.00;100147.91;5105969;28;20059;-63
2022/11/04 05:01:02;;;;;;;11.07;4.57;;;;;;;11.43;100.00;100142.50;5094463;28;20036;-63
2022/11/04 05:03:28;;;;;;;12.10;5.03;;;;;;;11.32;100.00;100152.09;5088225;28;20498;-63
2022/11/04 05:05:53;;;;;;;12.10;4.93;;;;;;;11.41;100.00;100149.97;5099873;28;20032;-63
2022/11/04 05:08:22;;;;;;;12.00;4.78;;;;;;;11.17;100.00;100155.13;5064033;28;20089;-63
2022/11/04 05:10:47;;;;;;;9.98;4.60;;;;;;;11.41;100.00;100156.19;5089189;28;20035;-63
2022/11/04 05:13:24;;;;;;;10.98;4.30;;;;;;;11.31;100.00;100147.78;5094372;28;20103;-63
2022/11/04 05:15:50;;;;;;;13.80;5.18;;;;;;;11.32;100.00;100140.50;5086469;28;20031;-63
2022/11/04 05:18:36;;;;;;;12.20;4.15;;;;;;;11.47;100.00;100165.25;5103061;28;20032;-63
2022/11/04 05:21:11;;;;;;;15.40;5.30;;;;;;;11.40;100.00;100157.22;5034472;28;20064;-63
2022/11/04 05:23:36;;;;;;;15.05;4.78;;;;;;;11.45;99.99;100159.25;5063564;28;20036;-63
2022/11/04 05:26:02;;;;;;;8.68;4.15;;;;;;;11.10;100.00;100129.31;5045431;28;20059;-63
2022/11/04 05:28:27;;;;;;;11.57;4.60;;;;;;;11.46;100.00;100161.75;5059119;28;20563;-63
2022/11/04 05:30:53;;;;;;;12.10;6.60;;;;;;;11.47;99.83;100162.56;5056729;28;20519;-63
2022/11/04 05:33:19;;;;;;;14.77;5.60;;;;;;;11.44;99.45;100163.00;5068701;28;20462;-63
2022/11/04 05:35:45;;;;;;;11.63;4.25;;;;;;;11.43;99.63;100158.66;5059685;28;20080;-63
2022/11/04 05:38:10;;;;;;;13.85;6.18;;;;;;;11.44;98.86;100150.34;5061431;28;20086;-63
2022/11/04 05:40:36;;;;;;;12.52;4.43;;;;;;;11.29;100.00;100147.16;5066495;28;20546;-63
2022/11/04 05:43:01;;;;;;;11.23;5.03;;;;;;;11.22;99.75;100128.34;5035470;28;20133;-63
2022/11/04 05:45:28;;;;;;;9.70;4.32;;;;;;;11.21;100.00;100134.81;5054444;28;20040;-63
2022/11/04 05:48:01;;;;;;;10.75;4.18;;;;;;;11.27;99.05;100154.66;5103490;28;20102;-63
2022/11/04 05:50:29;;;;;;;10.20;4.15;;;;;;;11.32;100.00;100149.41;5083474;28;20517;-63
2022/11/04 05:52:59;;;;;;;15.15;4.55;;;;;;;11.24;100.00;100150.53;5111256;28;20028;-64
2022/11/04 05:55:25;;;;;;;10.23;3.85;;;;;;;11.20;99.60;100117.00;5099348;28;20031;-63
2022/11/04 05:57:51;;;;;;;12.90;4.30;;;;;;;11.39;99.37;100139.44;5087132;28;20106;-64
2022/11/04 06:00:16;;;;;;;9.70;4.32;;;;;;;11.43;99.31;100142.50;5084716;28;20110;-64
2022/11/04 06:02:42;;;;;;;10.70;4.50;;;;;;;11.42;98.92;100147.06;5109878;28;20454;-63
2022/11/04 06:05:07;;;;;;;7.60;3.88;;;;;;;11.44;99.33;100150.34;5097743;28;20074;-64
2022/11/04 06:07:33;;;;;;;10.23;4.20;;;;;;;11.31;98.68;100118.16;5108818;28;20107;-63
2022/11/04 06:09:59;;;;;;;9.73;4.28;;;;;;;11.33;98.61;100129.53;5084327;28;20097;-63
2022/11/04 06:12:25;;;;;;;11.43;4.75;;;;;;;11.52;98.59;100157.31;5081611;28;20048;-64
2022/11/04 06:14:50;;;;;;;12.13;4.75;;;;;;;11.43;98.54;100137.94;5108684;28;20383;-63
2022/11/04 06:17:18;;;;;;;12.05;4.05;;;;;;;11.52;98.34;100157.31;5077307;28;20056;-64
2022/11/04 06:19:44;;;;;;;13.90;4.45;;;;;;;11.55;98.09;100151.50;5105245;28;20505;-63
2022/11/04 06:22:14;;;;;;;10.40;4.55;;;;;;;11.45;98.91;100152.00;5102967;28;20036;-64
2022/11/04 06:24:41;;;;;;;10.30;4.32;;;;;;;11.32;99.76;100148.59;5079744;28;20398;-63
2022/11/04 06:27:06;;;;;;;11.93;4.38;;;;;;;11.38;99.13;100128.88;5110592;28;20071;-64
2022/11/04 06:29:32;;;;;;;17.42;4.65;;;;;;;11.49;99.23;100149.72;5081380;28;20096;-64
2022/11/04 06:31:57;;;;;;;14.27;4.18;;;;;;;11.34;99.89;100147.34;5104848;28;20020;-63
2022/11/04 06:34:23;;;;;;;10.63;4.13;;;;;;;11.12;100.00;100113.75;5106471;28;20394;-63
2022/11/04 06:36:48;;;;;;;11.45;4.32;;;;;;;11.38;100.00;100145.03;5062657;28;20059;-64
2022/11/04 06:39:14;;;;;;;11.93;4.70;;;;;;;11.52;99.40;100136.63;5091009;28;20027;-63
2022/11/04 06:41:39;;;;;;;9.00;4.15;;;;;;;11.24;100.00;100134.38;5100004;28;20121;-63
2022/11/04 06:44:05;;;;;;;16.58;4.78;;;;;;;11.28;100.00;100103.25;5103812;28;20031;-63
2022/11/04 06:46:36;;;;;;;15.18;4.57;;;;;;;11.52;99.70;100130.38;5089331;28;20107;-63
2022/11/04 06:49:03;;;;;;;18.45;5.30;;;;;;;11.35;100.00;100134.69;5096840;28;20551;-63
2022/11/04 06:51:29;;;;;;;12.85;4.80;;;;;;;10.92;100.00;100138.13;5108779;28;20020;-63
2022/11/04 06:53:55;;;;;;;11.25;4.32;;;;;;;11.25;100.00;100129.78;5102056;28;20421;-63
2022/11/04 06:56:20;;;;;;;13.43;4.93;;;;;;;11.25;100.00;100122.53;5083317;28;20036;-63
2022/11/04 06:58:50;;;;;;;12.57;4.72;;;;;;;11.23;100.00;100138.13;5108935;28;20158;-63
2022/11/04 07:01:16;;;;;;;14.48;4.85;;;;;;;11.22;100.00;100122.16;5096833;28;20042;-63
2022/11/04 07:03:42;;;;;;;10.65;4.55;;;;;;;11.31;100.00;100125.41;5107006;28;20035;-63
2022/11/04 07:06:08;;;;;;;15.13;5.00;;;;;;;11.53;100.00;100115.88;5085717;28;20044;-62
2022/11/04 07:08:34;;;;;;;12.02;5.00;;;;;;;11.54;100.00;100125.59;5099620;28;20112;-62
2022/11/04 07:11:20;;;;;;;15.55;4.70;;;;;;;11.51;100.00;100104.50;5109860;28;20102;-63
2022/11/04 07:13:46;;;;;;;12.48;4.95;;;;;;;11.44;100.00;100103.75;5050375;28;20049;-62
2022/11/04 07:16:12;;;;;;;14.35;5.25;;;;;;;11.36;100.00;100106.72;5033598;28;20052;-62
2022/11/04 07:18:38;;;;;;;9.30;4.35;;;;;;;11.15;100.00;100122.22;5050479;28;20068;-62
2022/11/04 07:21:04;;;;;;;14.93;4.70;;;;;;;11.49;100.00;100112.00;5031576;28;20034;-62
2022/11/04 07:23:29;;;;;;;8.77;4.32;;;;;;;11.58;100.00;100131.38;5050471;28;20044;-63
2022/11/04 07:26:03;;;;;;;9.10;4.18;;;;;;;11.67;99.53;100128.16;5050501;28;20535;-62
2022/11/04 07:28:28;;;;;;;15.10;4.55;;;;;;;11.69;99.40;100130.66;5050618;28;20091;-63
2022/11/04 07:30:58;;;;;;;12.57;5.00;;;;;;;11.48;100.00;100118.41;5033642;28;20033;-64
2022/11/04 07:33:25;;;;;;;18.98;4.95;;;;;;;11.60;100.00;100111.25;5034711;28;20372;-66
2022/11/04 07:35:52;;;;;;;11.38;5.10;;;;;;;11.56;99.59;100104.66;5033716;28;20025;-63
2022/11/04 07:38:18;;;;;;;10.65;4.50;;;;;;;11.70;99.22;100118.81;5022324;28;20041;-65
2022/11/04 07:40:43;;;;;;;11.15;4.55;;;;;;;11.74;99.20;100118.13;5045280;28;20041;-66
2022/11/04 07:43:09;;;;;;;11.45;4.60;;;;;;;11.69;99.47;100127.97;5049784;28;20577;-62
2022/11/04 07:45:34;;;;;;;14.13;4.65;;;;;;;11.75;98.64;100127.03;5091611;28;20039;-66
2022/11/04 07:47:59;;;;;;;14.52;5.63;;;;;;;11.77;99.14;100123.09;5102777;28;20113;-63
2022/11/04 07:50:25;;;;;;;11.40;4.95;;;;;;;11.90;98.42;100129.44;5105350;28;20391;-63
2022/11/04 07:52:50;;;;;;;14.20;5.18;;;;;;;11.95;98.06;100129.56;5096302;28;20039;-68
2022/11/04 07:55:19;;;;;;;11.70;5.28;;;;;;;11.76;99.56;100126.84;5074041;28;20490;-65
2022/11/04 07:57:45;;;;;;;14.27;5.82;;;;;;;11.82;99.02;100118.88;5099508;28;20043;-64
2022/11/04 08:00:13;;;;;;;16.35;5.63;;;;;;;11.88;98.81;100139.59;5083391;28;20028;-70
2022/11/04 08:02:39;;;;;;;12.32;5.05;;;;;;;11.84;98.98;100124.91;5106800;28;20023;-68
2022/11/04 08:05:05;;;;;;;10.90;5.63;;;;;;;11.99;98.50;100125.38;5093828;28;20498;-64
2022/11/04 08:07:33;;;;;;;15.32;5.22;;;;;;;12.14;97.61;100125.00;5073818;28;20218;-67
2022/11/04 08:09:58;;;;;;;15.25;5.10;;;;;;;12.17;97.42;100119.97;5100829;28;20074;-65
2022/11/04 08:12:24;;;;;;;14.13;5.50;;;;;;;12.15;97.83;100129.31;5064746;28;20058;-68
2022/11/04 08:14:50;;;;;;;12.30;5.60;;;;;;;12.08;98.34;100117.78;5089551;28;20490;-67
2022/11/04 08:17:16;;;;;;;13.18;5.53;;;;;;;12.27;97.55;100115.91;5077382;28;20047;-66
2022/11/04 08:19:41;;;;;;;11.77;5.53;;;;;;;12.29;97.35;100097.63;5104239;28;20414;-68
2022/11/04 08:22:07;;;;;;;10.77;5.32;;;;;;;12.44;96.72;100116.94;5101604;28;20037;-66
2022/11/04 08:24:33;;;;;;;13.55;5.88;;;;;;;12.31;96.83;100082.84;5087295;28;20035;-64
2022/11/04 08:26:58;;;;;;;14.30;6.00;;;;;;;12.45;96.64;100102.41;5094641;28;20028;-66
2022/11/04 08:29:23;;;;;;;11.82;5.70;;;;;;;12.51;96.56;100106.84;5089762;28;20031;-64
2022/11/04 08:31:49;;;;;;;13.80;5.65;;;;;;;12.36;97.63;100109.16;5057898;28;20073;-64
2022/11/04 08:34:17;;;;;;;15.68;6.35;;;;;;;12.39;96.91;100098.72;5084559;28;20490;-64
2022/11/04 08:36:42;;;;;;;14.60;6.28;;;;;;;12.58;96.57;100083.31;5097032;28;20039;-64
2022/11/04 08:39:10;;;;;;;10.52;5.40;;;;;;;12.56;96.76;100085.41;5090127;28;20027;-65
2022/11/04 08:41:37;;;;;;;10.95;5.50;;;;;;;12.39;97.04;100081.72;5097176;28;20512;-64
2022/11/04 08:44:03;;;;;;;13.18;5.97;;;;;;;12.53;97.17;100093.16;5091563;28;20024;-65
2022/11/04 08:46:34;;;;;;;13.52;5.97;;;;;;;12.61;97.09;100093.63;5073329;28;20053;-65
2022/11/04 08:49:00;;;;;;;9.75;6.32;;;;;;;12.58;96.84;100082.47;5091861;28;20035;-64
2022/11/04 08:51:27;;;;;;;14.82;6.40;;;;;;;12.61;97.18;100093.63;5073352;28;20213;-63
2022/11/04 08:53:53;;;;;;;11.82;6.45;;;;;;;12.64;97.09;100095.88;5091236;28;20024;-63
2022/11/04 08:56:21;;;;;;;14.02;6.40;;;;;;;12.61;96.93;100080.13;5103080;28;20318;-64
2022/11/04 08:58:47;;;;;;;13.75;5.88;;;;;;;12.81;96.71;100085.25;5095624;28;20414;-66
2022/11/04 09:01:13;;;;;;;12.40;6.07;;;;;;;12.80;95.67;100080.09;5107836;28;20023;-64
2022/11/04 09:03:39;;;;;;;12.05;6.35;;;;;;;12.95;96.21;100083.19;5079060;28;20027;-63
2022/11/04 09:06:27;;;;;;;12.60;6.38;;;;;;;12.99;95.55;100087.06;5050199;28;20070;-63
2022/11/04 09:08:57;;;;;;;13.60;6.70;;;;;;;12.41;96.39;100017.56;5028613;28;20045;-63
2022/11/04 09:11:23;;;;;;;14.65;6.65;;;;;;;13.03;95.73;100087.41;5032136;28;20032;-65
2022/11/04 09:13:48;;;;;;;17.02;6.80;;;;;;;13.10;95.02;100074.63;5048374;28;20052;-63
2022/11/04 09:16:15;;;;;;;15.07;6.72;;;;;;;13.13;95.55;100091.16;5048590;28;20041;-63
2022/11/04 09:18:40;;;;;;;14.65;6.78;;;;;;;13.12;95.10;100067.09;5031834;28;20043;-63
2022/11/04 09:21:08;;;;;;;14.35;7.13;;;;;;;13.19;95.05;100096.72;5048320;28;20045;-64
2022/11/04 09:23:34;;;;;;;13.18;6.47;;;;;;;13.07;95.77;100089.41;5048371;28;20099;-63
2022/11/04 09:26:11;;;;;;;15.13;7.18;;;;;;;13.13;94.77;100060.63;5031791;28;20033;-63
2022/11/04 09:28:37;;;;;;;13.05;7.20;;;;;;;13.19;95.24;100085.91;5018523;28;20094;-64
2022/11/04 09:31:15;;;;;;;13.32;7.05;;;;;;;13.16;95.06;100090.72;5013069;28;20033;-64
2022/11/04 09:33:41;;;;;;;13.95;6.88;;;;;;;13.10;95.82;100082.72;5047299;28;20500;-64
2022/11/04 09:36:08;;;;;;;12.48;7.13;;;;;;;13.03;95.66;100088.22;5028415;28;20034;-64
2022/11/04 09:38:37;;;;;;;10.65;6.35;;;;;;;13.19;95.05;100086.72;5041865;28;20400;-63
2022/11/04 09:41:46;;;;;;;16.33;7.28;;;;;;;13.13;95.67;100088.47;5088979;28;20024;-64
2022/11/04 09:44:35;;;;;;;12.63;7.38;;;;;;;13.26;94.96;100075.84;5101208;28;20494;-64
2022/11/04 09:47:02;;;;;;;14.57;7.68;;;;;;;13.08;95.49;100065.94;5094172;28;20032;-63
2022/11/04 09:49:35;;;;;;;13.88;7.63;;;;;;;13.30;94.92;100077.81;5090032;28;20498;-63
2022/11/04 09:52:05;;;;;;;15.05;7.90;;;;;;;13.35;95.02;100066.31;5095814;28;20024;-66
2022/11/04 09:54:43;;;;;;;14.38;8.00;;;;;;;13.24;95.48;100061.69;5085544;28;20028;-64
2022/11/04 09:57:18;;;;;;;15.88;7.65;;;;;;;13.26;95.06;100063.16;5094176;28;20024;-64
2022/11/04 09:59:44;;;;;;;;;;;;;;;13.34;94.12;100057.41;5104848;28;20044;-64
2022/11/04 10:02:10;;;;;;;12.48;6.80;;;;;;;13.35;95.30;100063.63;5082473;28;19923;-64
2022/11/04 10:04:51;;;;;;;13.50;6.43;;;;;;;13.32;95.33;100064.09;5078557;28;20031;-63
2022/11/04 10:07:16;;;;;;;11.27;6.03;;;;;;;13.33;95.46;100054.91;5089299;28;20506;-64
2022/11/04 10:10:00;;;;;;;16.70;7.07;;;;;;;13.40;94.98;100069.13;5095670;28;20057;-63
2022/11/04 10:13:02;;;;;;;14.55;6.13;;;;;;;13.34;95.06;100067.38;5088539;28;20035;-65
2022/11/04 10:15:52;;;;;;;14.60;6.75;;;;;;;13.47;94.47;100069.81;5082933;28;20028;-64
2022/11/04 10:18:33;;;;;;;10.98;6.93;;;;;;;13.38;94.61;100061.28;5103159;28;20032;-65
2022/11/04 10:21:13;;;;;;;10.57;6.53;;;;;;;13.58;94.17;100079.00;5110700;28;20067;-63
2022/11/04 10:23:45;;;;;;;14.50;7.05;;;;;;;13.33;93.97;100044.94;5099873;28;20027;-63
2022/11/04 10:26:41;;;;;;;15.55;7.13;;;;;;;13.50;94.29;100065.84;5103998;28;20028;-63
2022/11/04 10:29:21;;;;;;;19.60;7.07;;;;;;;13.53;93.91;100070.78;5092396;28;20509;-67
2022/11/04 10:31:47;;;;;;;13.63;6.53;;;;;;;13.52;93.88;100071.84;5082460;28;20469;-62
2022/11/04 10:34:33;;;;;;;16.98;7.28;;;;;;;13.71;93.40;100069.78;5103811;28;20055;-62
2022/11/04 10:36:59;;;;;;;12.32;7.55;;;;;;;13.60;93.51;100068.75;5110594;28;20445;-65
2022/11/04 10:39:28;;;;;;;16.60;7.80;;;;;;;13.56;93.72;100060.31;5079313;28;20030;-64
2022/11/04 10:41:53;;;;;;;20.65;7.25;;;;;;;13.74;93.36;100053.09;5087983;28;20035;-63
2022/11/04 10:44:29;;;;;;;13.73;6.78;;;;;;;13.79;93.06;100053.22;5105141;28;20448;-62
2022/11/04 10:47:09;;;;;;;13.43;6.25;;;;;;;13.83;92.96;100044.38;5097654;28;20082;-63
2022/11/04 10:49:53;;;;;;;14.63;6.80;;;;;;;13.39;92.84;99979.13;5083814;28;20031;-63
2022/11/04 10:52:19;;;;;;;16.33;6.78;;;;;;;13.76;93.53;100065.31;5102808;28;20030;-65
2022/11/04 10:54:48;;;;;;;12.30;6.88;;;;;;;13.83;92.92;100047.09;5108580;28;20441;-64
2022/11/04 10:57:23;;;;;;;15.40;6.95;;;;;;;14.06;91.76;100038.06;5078810;28;20034;-64
2022/11/04 10:59:59;;;;;;;13.95;6.93;;;;;;;14.05;90.80;100054.56;5106476;28;20050;-64
2022/11/04 11:02:36;;;;;;;14.65;6.32;;;;;;;14.07;91.77;100055.13;5087015;28;20108;-63
2022/11/04 11:05:24;;;;;;;14.48;6.80;;;;;;;14.28;91.11;100053.66;5096474;28;20034;-62
2022/11/04 11:07:53;;;;;;;15.82;6.63;;;;;;;14.43;90.20;100045.00;5106769;28;20024;-63
2022/11/04 11:10:22;;;;;;;14.25;5.97;;;;;;;14.41;90.56;100050.66;5104953;28;20049;-63
2022/11/04 11:13:03;;;;;;;13.65;6.75;;;;;;;14.36;90.20;100047.03;5098308;28;20053;-63
2022/11/04 11:15:36;;;;;;;13.50;6.00;;;;;;;14.32;90.34;100042.09;5063560;28;20025;-63
2022/11/04 11:18:04;;;;;;;14.73;6.93;;;;;;;14.21;90.45;100036.75;5104368;28;20060;-65
2022/11/04 11:20:32;;;;;;;12.88;6.18;;;;;;;14.02;91.61;100031.50;5105974;28;20039;-63
2022/11/04 11:22:58;;;;;;;14.25;5.97;;;;;;;13.93;91.75;100022.13;5078355;28;20020;-63
2022/11/04 11:25:31;;;;;;;15.10;6.90;;;;;;;14.09;91.45;100036.78;5079892;28;20030;-62
2022/11/04 11:27:56;;;;;;;13.25;7.32;;;;;;;14.15;91.17;100046.66;5069731;28;20144;-63
2022/11/04 11:30:23;;;;;;;16.88;7.05;;;;;;;14.10;91.72;100047.38;5086344;28;20024;-62
2022/11/04 11:32:55;;;;;;;13.10;7.03;;;;;;;14.20;91.17;100054.84;5097829;28;20403;-62
2022/11/04 11:35:26;;;;;;;14.27;6.47;;;;;;;14.22;91.32;100052.72;5109569;28;20099;-63
2022/11/04 11:37:52;;;;;;;17.42;7.13;;;;;;;14.23;90.86;100058.97;5100116;28;20024;-63
2022/11/04 11:40:30;;;;;;;13.70;6.45;;;;;;;14.23;91.07;100050.84;5102027;28;20024;-62
2022/11/04 11:42:56;;;;;;;15.30;6.43;;;;;;;14.21;91.05;100055.69;5109039;28;20121;-64
2022/11/04 11:45:23;;;;;;;14.25;6.15;;;;;;;13.90;92.67;100046.94;5095822;28;20035;-64
2022/11/04 11:47:53;;;;;;;17.13;7.13;;;;;;;14.08;92.34;100054.09;5087638;28;20488;-65
2022/11/04 11:50:30;;;;;;;11.73;6.05;;;;;;;14.08;92.42;100057.59;5103817;28;20030;-66
2022/11/04 11:53:23;;;;;;;13.10;6.68;;;;;;;14.09;92.37;100042.19;5096358;28;20027;-65
2022/11/04 11:56:17;;;;;;;12.23;6.20;;;;;;;14.07;92.32;100047.00;5082732;28;20551;-65
2022/11/04 11:58:55;;;;;;;12.73;6.00;;;;;;;13.93;93.51;100045.66;5061125;28;20059;-66
2022/11/04 12:01:29;;;;;;;20.77;7.22;;;;;;;13.99;93.69;100050.13;5090628;28;20020;-65
2022/11/04 12:03:55;;;;;;;9.95;6.22;;;;;;;13.86;94.50;100046.59;5100245;28;20033;-65